sensor_id;sensor_type;location;lat;lon;timestamp;temperature;humidity
7014;DHT22;3547;50.774;12.918;2023-03-14T00:01:36;9.70;1.00
7014;DHT22;3547;50.774;12.918;2023-03-14T00:04:13;9.70;1.00
7014;DHT22;3547;50.774;12.918;2023-03-14T00:06:46;9.60;1.00
7014;DHT22;3547;50.774;12.918;2023-03-14T00:09:35;9.60;1.00
7014;DHT22;3547;50.774;12.918;2023-03-14T00:12:08;9.60;99.90
7014;DHT22;3547;50.774;12.918;2023-03-14T00:14:34;9.50;99.90
7014;DHT22;3547;50.774;12.918;2023-03-14T00:17:01;9.50;99.90
7014;DHT22;3547;50.774;12.918;2023-03-14T00:19:28;9.50;99.90
7014;DHT22;3547;50.774;12.918;2023-03-14T00:21:59;9.50;99.90
7014;DHT22;3547;50.774;12.918;2023-03-14T00:24:30;9.50;99.90
7014;DHT22;3547;50.774;12.918;2023-03-14T00:26:58;9.50;99.90
7014;DHT22;3547;50.774;12.918;2023-03-14T00:29:24;9.50;56.10
7014;DHT22;3547;50.774;12.918;2023-03-14T00:31:50;9.60;6.60
7014;DHT22;3547;50.774;12.918;2023-03-14T00:34:23;9.60;1.00
7014;DHT22;3547;50.774;12.918;2023-03-14T00:36:49;9.60;1.00
7014;DHT22;3547;50.774;12.918;2023-03-14T00:39:15;9.60;1.00
7014;DHT22;3547;50.774;12.918;2023-03-14T00:41:42;9.60;1.00
7014;DHT22;3547;50.774;12.918;2023-03-14T00:44:08;9.60;1.00
7014;DHT22;3547;50.774;12.918;2023-03-14T00:46:34;9.60;1.00
7014;DHT22;3547;50.774;12.918;2023-03-14T00:54:15;9.70;1.00
7014;DHT22;3547;50.774;12.918;2023-03-14T00:57:04;9.60;1.00
7014;DHT22;3547;50.774;12.918;2023-03-14T00:59:30;9.60;1.00
7014;DHT22;3547;50.774;12.918;2023-03-14T01:01:57;9.60;1.00
7014;DHT22;3547;50.774;12.918;2023-03-14T01:04:23;9.60;1.00
7014;DHT22;3547;50.774;12.918;2023-03-14T01:06:49;9.60;99.90
7014;DHT22;3547;50.774;12.918;2023-03-14T01:12:41;9.70;99.90
7014;DHT22;3547;50.774;12.918;2023-03-14T01:15:07;9.70;99.90
7014;DHT22;3547;50.774;12.918;2023-03-14T01:17:34;9.70;99.90
7014;DHT22;3547;50.774;12.918;2023-03-14T01:20:01;9.70;99.90
7014;DHT22;3547;50.774;12.918;2023-03-14T01:22:28;9.70;99.90
7014;DHT22;3547;50.774;12.918;2023-03-14T01:24:54;9.70;99.90
7014;DHT22;3547;50.774;12.918;2023-03-14T01:27:23;9.70;99.90
7014;DHT22;3547;50.774;12.918;2023-03-14T01:29:53;9.60;99.90
7014;DHT22;3547;50.774;12.918;2023-03-14T01:32:24;9.60;99.90
7014;DHT22;3547;50.774;12.918;2023-03-14T01:34:50;9.60;99.90
7014;DHT22;3547;50.774;12.918;2023-03-14T01:37:16;9.70;99.90
7014;DHT22;3547;50.774;12.918;2023-03-14T01:39:42;9.60;99.90
7014;DHT22;3547;50.774;12.918;2023-03-14T01:42:08;9.70;99.90
7014;DHT22;3547;50.774;12.918;2023-03-14T01:44:55;9.60;99.90
7014;DHT22;3547;50.774;12.918;2023-03-14T01:47:22;9.60;99.90
7014;DHT22;3547;50.774;12.918;2023-03-14T01:50:04;9.60;99.90
7014;DHT22;3547;50.774;12.918;2023-03-14T01:52:49;9.60;99.90
7014;DHT22;3547;50.774;12.918;2023-03-14T01:55:22;9.50;99.90
7014;DHT22;3547;50.774;12.918;2023-03-14T01:57:56;9.50;99.90
7014;DHT22;3547;50.774;12.918;2023-03-14T02:00:26;9.50;99.90
7014;DHT22;3547;50.774;12.918;2023-03-14T02:03:20;9.50;99.90
7014;DHT22;3547;50.774;12.918;2023-03-14T02:05:53;9.60;99.90
7014;DHT22;3547;50.774;12.918;2023-03-14T02:08:24;9.60;95.60
7014;DHT22;3547;50.774;12.918;2023-03-14T02:10:52;9.60;77.60
7014;DHT22;3547;50.774;12.918;2023-03-14T02:13:23;9.70;29.60
7014;DHT22;3547;50.774;12.918;2023-03-14T02:15:56;9.70;16.80
7014;DHT22;3547;50.774;12.918;2023-03-14T02:18:22;9.80;40.50
7014;DHT22;3547;50.774;12.918;2023-03-14T02:30:05;9.80;17.50
7014;DHT22;3547;50.774;12.918;2023-03-14T02:32:41;9.80;18.90
7014;DHT22;3547;50.774;12.918;2023-03-14T02:35:28;9.70;13.20
7014;DHT22;3547;50.774;12.918;2023-03-14T02:38:27;9.80;13.60
7014;DHT22;3547;50.774;12.918;2023-03-14T02:41:18;9.80;1.00
7014;DHT22;3547;50.774;12.918;2023-03-14T02:43:51;9.80;11.50
7014;DHT22;3547;50.774;12.918;2023-03-14T02:46:38;9.80;1.00
7014;DHT22;3547;50.774;12.918;2023-03-14T02:49:14;9.80;12.20
7014;DHT22;3547;50.774;12.918;2023-03-14T02:51:41;9.70;1.40
7014;DHT22;3547;50.774;12.918;2023-03-14T02:54:12;9.70;1.00
7014;DHT22;3547;50.774;12.918;2023-03-14T02:56:38;9.70;1.00
7014;DHT22;3547;50.774;12.918;2023-03-14T02:59:05;9.70;1.00
7014;DHT22;3547;50.774;12.918;2023-03-14T03:01:34;9.60;9.70
7014;DHT22;3547;50.774;12.918;2023-03-14T03:04:03;9.50;1.00
7014;DHT22;3547;50.774;12.918;2023-03-14T03:06:49;9.50;2.80
7014;DHT22;3547;50.774;12.918;2023-03-14T03:09:24;9.50;1.00
7014;DHT22;3547;50.774;12.918;2023-03-14T03:12:09;9.40;1.00
7014;DHT22;3547;50.774;12.918;2023-03-14T03:20:39;9.40;4.10
7014;DHT22;3547;50.774;12.918;2023-03-14T03:23:05;9.50;1.00
7014;DHT22;3547;50.774;12.918;2023-03-14T03:25:32;9.40;1.00
7014;DHT22;3547;50.774;12.918;2023-03-14T03:31:29;9.30;1.00
7014;DHT22;3547;50.774;12.918;2023-03-14T03:37:02;9.30;1.00
7014;DHT22;3547;50.774;12.918;2023-03-14T03:39:32;9.30;1.00
7014;DHT22;3547;50.774;12.918;2023-03-14T03:42:04;9.30;1.00
7014;DHT22;3547;50.774;12.918;2023-03-14T03:44:30;9.20;1.00
7014;DHT22;3547;50.774;12.918;2023-03-14T03:46:58;9.20;1.00
7014;DHT22;3547;50.774;12.918;2023-03-14T03:56:18;9.00;1.00
7014;DHT22;3547;50.774;12.918;2023-03-14T03:58:45;9.00;1.00
7014;DHT22;3547;50.774;12.918;2023-03-14T04:12:23;9.00;1.00
7014;DHT22;3547;50.774;12.918;2023-03-14T04:14:49;9.00;1.00
7014;DHT22;3547;50.774;12.918;2023-03-14T04:17:15;9.00;1.00
7014;DHT22;3547;50.774;12.918;2023-03-14T04:19:42;9.00;1.00
7014;DHT22;3547;50.774;12.918;2023-03-14T04:22:08;9.00;1.00
7014;DHT22;3547;50.774;12.918;2023-03-14T04:27:57;9.00;1.00
7014;DHT22;3547;50.774;12.918;2023-03-14T04:30:23;9.10;1.00
7014;DHT22;3547;50.774;12.918;2023-03-14T04:32:50;9.10;1.00
7014;DHT22;3547;50.774;12.918;2023-03-14T04:35:19;9.10;1.00
7014;DHT22;3547;50.774;12.918;2023-03-14T04:40:55;9.10;1.00
7014;DHT22;3547;50.774;12.918;2023-03-14T04:43:21;9.10;1.00
7014;DHT22;3547;50.774;12.918;2023-03-14T04:45:50;9.10;1.00
7014;DHT22;3547;50.774;12.918;2023-03-14T04:48:17;9.10;1.00
7014;DHT22;3547;50.774;12.918;2023-03-14T04:50:43;9.10;1.00
7014;DHT22;3547;50.774;12.918;2023-03-14T04:53:25;9.10;1.00
7014;DHT22;3547;50.774;12.918;2023-03-14T04:55:56;9.10;1.00
7014;DHT22;3547;50.774;12.918;2023-03-14T05:01:35;9.20;1.00
7014;DHT22;3547;50.774;12.918;2023-03-14T05:04:21;9.20;1.00
7014;DHT22;3547;50.774;12.918;2023-03-14T05:06:47;9.10;1.00
7014;DHT22;3547;50.774;12.918;2023-03-14T05:09:15;9.10;1.00
7014;DHT22;3547;50.774;12.918;2023-03-14T05:24:40;9.10;1.00
7014;DHT22;3547;50.774;12.918;2023-03-14T05:27:07;9.10;1.00
7014;DHT22;3547;50.774;12.918;2023-03-14T05:29:33;9.00;1.00
7014;DHT22;3547;50.774;12.918;2023-03-14T05:31:59;9.10;1.00
7014;DHT22;3547;50.774;12.918;2023-03-14T05:34:25;9.10;1.00
7014;DHT22;3547;50.774;12.918;2023-03-14T05:36:51;9.10;1.00
7014;DHT22;3547;50.774;12.918;2023-03-14T05:39:21;9.20;1.00
7014;DHT22;3547;50.774;12.918;2023-03-14T05:41:47;9.20;1.00
7014;DHT22;3547;50.774;12.918;2023-03-14T05:44:13;9.20;1.00
7014;DHT22;3547;50.774;12.918;2023-03-14T05:46:39;9.20;1.00
7014;DHT22;3547;50.774;12.918;2023-03-14T05:49:05;9.20;1.00
7014;DHT22;3547;50.774;12.918;2023-03-14T05:51:31;9.30;1.00
7014;DHT22;3547;50.774;12.918;2023-03-14T05:53:57;9.30;1.00
7014;DHT22;3547;50.774;12.918;2023-03-14T05:56:23;9.20;1.00
7014;DHT22;3547;50.774;12.918;2023-03-14T05:58:50;9.30;1.00
7014;DHT22;3547;50.774;12.918;2023-03-14T06:01:16;9.30;1.00
7014;DHT22;3547;50.774;12.918;2023-03-14T06:03:42;9.30;1.00
7014;DHT22;3547;50.774;12.918;2023-03-14T06:06:08;9.30;1.00
7014;DHT22;3547;50.774;12.918;2023-03-14T06:08:34;9.30;1.00
7014;DHT22;3547;50.774;12.918;2023-03-14T06:11:03;9.30;1.00
7014;DHT22;3547;50.774;12.918;2023-03-14T06:13:29;9.30;1.00
7014;DHT22;3547;50.774;12.918;2023-03-14T06:15:55;9.30;1.00
7014;DHT22;3547;50.774;12.918;2023-03-14T06:18:21;9.40;1.00
7014;DHT22;3547;50.774;12.918;2023-03-14T06:20:48;9.40;1.00
7014;DHT22;3547;50.774;12.918;2023-03-14T06:23:14;9.40;1.00
7014;DHT22;3547;50.774;12.918;2023-03-14T06:29:05;9.40;1.00
7014;DHT22;3547;50.774;12.918;2023-03-14T06:31:32;9.40;1.00
7014;DHT22;3547;50.774;12.918;2023-03-14T06:33:58;9.50;1.00
7014;DHT22;3547;50.774;12.918;2023-03-14T06:36:24;9.50;1.00
7014;DHT22;3547;50.774;12.918;2023-03-14T06:38:51;9.50;1.00
7014;DHT22;3547;50.774;12.918;2023-03-14T06:41:17;9.50;1.00
7014;DHT22;3547;50.774;12.918;2023-03-14T06:43:44;9.50;1.00
7014;DHT22;3547;50.774;12.918;2023-03-14T06:46:10;9.50;1.00
7014;DHT22;3547;50.774;12.918;2023-03-14T06:48:49;9.50;1.00
7014;DHT22;3547;50.774;12.918;2023-03-14T06:51:15;9.50;1.00
7014;DHT22;3547;50.774;12.918;2023-03-14T06:53:41;9.50;1.00
7014;DHT22;3547;50.774;12.918;2023-03-14T06:56:10;9.50;1.00
7014;DHT22;3547;50.774;12.918;2023-03-14T06:58:42;9.50;1.00
7014;DHT22;3547;50.774;12.918;2023-03-14T07:01:24;9.50;1.00
7014;DHT22;3547;50.774;12.918;2023-03-14T07:03:51;9.50;1.00
7014;DHT22;3547;50.774;12.918;2023-03-14T07:06:17;9.60;1.00
7014;DHT22;3547;50.774;12.918;2023-03-14T07:08:43;9.60;1.00
7014;DHT22;3547;50.774;12.918;2023-03-14T07:11:09;9.70;99.90
7014;DHT22;3547;50.774;12.918;2023-03-14T07:13:38;9.70;1.00
7014;DHT22;3547;50.774;12.918;2023-03-14T07:16:05;9.70;1.00
7014;DHT22;3547;50.774;12.918;2023-03-14T07:18:31;9.80;99.90
7014;DHT22;3547;50.774;12.918;2023-03-14T07:20:58;9.80;99.90
7014;DHT22;3547;50.774;12.918;2023-03-14T07:23:25;9.80;99.90
7014;DHT22;3547;50.774;12.918;2023-03-14T07:25:51;9.90;99.90
7014;DHT22;3547;50.774;12.918;2023-03-14T07:28:19;9.80;99.90
7014;DHT22;3547;50.774;12.918;2023-03-14T07:30:51;9.90;99.90
7014;DHT22;3547;50.774;12.918;2023-03-14T07:35:55;9.90;99.90
7014;DHT22;3547;50.774;12.918;2023-03-14T07:38:21;9.90;99.90
7014;DHT22;3547;50.774;12.918;2023-03-14T07:40:48;9.90;99.90
7014;DHT22;3547;50.774;12.918;2023-03-14T07:43:14;9.90;99.90
7014;DHT22;3547;50.774;12.918;2023-03-14T07:45:40;10.00;99.90
7014;DHT22;3547;50.774;12.918;2023-03-14T07:48:06;10.00;99.90
7014;DHT22;3547;50.774;12.918;2023-03-14T07:50:32;10.10;99.90
7014;DHT22;3547;50.774;12.918;2023-03-14T07:52:58;10.20;99.90
7014;DHT22;3547;50.774;12.918;2023-03-14T07:55:25;10.20;99.90
7014;DHT22;3547;50.774;12.918;2023-03-14T07:57:51;10.20;99.90
7014;DHT22;3547;50.774;12.918;2023-03-14T08:00:17;10.20;99.90
7014;DHT22;3547;50.774;12.918;2023-03-14T08:02:44;10.20;99.90
7014;DHT22;3547;50.774;12.918;2023-03-14T08:05:10;10.20;99.90
7014;DHT22;3547;50.774;12.918;2023-03-14T08:07:36;10.20;99.90
7014;DHT22;3547;50.774;12.918;2023-03-14T08:10:03;10.30;99.90
7014;DHT22;3547;50.774;12.918;2023-03-14T08:12:34;10.30;99.90
7014;DHT22;3547;50.774;12.918;2023-03-14T08:15:00;10.30;99.90
7014;DHT22;3547;50.774;12.918;2023-03-14T08:17:26;10.30;99.90
7014;DHT22;3547;50.774;12.918;2023-03-14T08:19:53;10.30;99.90
7014;DHT22;3547;50.774;12.918;2023-03-14T08:22:19;10.30;99.90
7014;DHT22;3547;50.774;12.918;2023-03-14T08:24:47;10.30;99.90
7014;DHT22;3547;50.774;12.918;2023-03-14T08:27:14;10.40;99.90
7014;DHT22;3547;50.774;12.918;2023-03-14T08:29:40;10.40;99.90
7014;DHT22;3547;50.774;12.918;2023-03-14T08:32:08;10.50;99.90
7014;DHT22;3547;50.774;12.918;2023-03-14T08:34:34;10.60;99.90
7014;DHT22;3547;50.774;12.918;2023-03-14T08:37:00;10.80;99.90
7014;DHT22;3547;50.774;12.918;2023-03-14T08:39:28;10.90;99.90
7014;DHT22;3547;50.774;12.918;2023-03-14T08:41:54;11.00;99.90
7014;DHT22;3547;50.774;12.918;2023-03-14T08:44:21;11.10;99.90
7014;DHT22;3547;50.774;12.918;2023-03-14T08:46:47;11.20;99.90
7014;DHT22;3547;50.774;12.918;2023-03-14T08:49:14;11.20;99.90
7014;DHT22;3547;50.774;12.918;2023-03-14T08:51:41;11.30;99.90
7014;DHT22;3547;50.774;12.918;2023-03-14T08:54:10;11.20;99.90
7014;DHT22;3547;50.774;12.918;2023-03-14T08:56:36;11.40;99.90
7014;DHT22;3547;50.774;12.918;2023-03-14T08:59:04;11.30;99.90
7014;DHT22;3547;50.774;12.918;2023-03-14T09:01:31;11.20;99.90
7014;DHT22;3547;50.774;12.918;2023-03-14T09:03:57;11.10;99.90
7014;DHT22;3547;50.774;12.918;2023-03-14T09:06:23;10.90;99.90
7014;DHT22;3547;50.774;12.918;2023-03-14T09:08:51;10.80;99.90
7014;DHT22;3547;50.774;12.918;2023-03-14T09:11:17;10.60;98.00
7014;DHT22;3547;50.774;12.918;2023-03-14T09:13:45;10.50;99.90
7014;DHT22;3547;50.774;12.918;2023-03-14T09:16:11;10.40;99.90
7014;DHT22;3547;50.774;12.918;2023-03-14T09:18:38;10.40;99.90
7014;DHT22;3547;50.774;12.918;2023-03-14T09:21:04;10.40;99.90
7014;DHT22;3547;50.774;12.918;2023-03-14T09:23:31;10.40;99.90
7014;DHT22;3547;50.774;12.918;2023-03-14T09:25:58;10.40;99.90
7014;DHT22;3547;50.774;12.918;2023-03-14T09:28:31;10.40;99.90
7014;DHT22;3547;50.774;12.918;2023-03-14T09:30:57;10.40;99.90
7014;DHT22;3547;50.774;12.918;2023-03-14T09:33:23;10.50;99.90
7014;DHT22;3547;50.774;12.918;2023-03-14T09:35:50;10.60;99.90
7014;DHT22;3547;50.774;12.918;2023-03-14T09:38:16;10.60;99.90
7014;DHT22;3547;50.774;12.918;2023-03-14T09:40:42;10.50;99.90
7014;DHT22;3547;50.774;12.918;2023-03-14T09:43:14;10.50;99.90
7014;DHT22;3547;50.774;12.918;2023-03-14T09:45:41;10.50;99.90
7014;DHT22;3547;50.774;12.918;2023-03-14T09:48:19;10.60;99.90
7014;DHT22;3547;50.774;12.918;2023-03-14T09:50:51;10.50;99.90
7014;DHT22;3547;50.774;12.918;2023-03-14T09:53:22;10.50;92.70
7014;DHT22;3547;50.774;12.918;2023-03-14T09:55:50;10.40;99.90
7014;DHT22;3547;50.774;12.918;2023-03-14T09:58:21;10.40;99.90
7014;DHT22;3547;50.774;12.918;2023-03-14T10:00:55;10.40;94.40
7014;DHT22;3547;50.774;12.918;2023-03-14T10:03:34;10.40;99.90
7014;DHT22;3547;50.774;12.918;2023-03-14T10:06:02;10.50;99.90
7014;DHT22;3547;50.774;12.918;2023-03-14T10:08:30;10.50;99.90
7014;DHT22;3547;50.774;12.918;2023-03-14T10:10:56;10.60;99.90
7014;DHT22;3547;50.774;12.918;2023-03-14T10:13:26;10.70;98.30
7014;DHT22;3547;50.774;12.918;2023-03-14T10:16:03;10.70;98.70
7014;DHT22;3547;50.774;12.918;2023-03-14T10:18:36;10.80;99.90
7014;DHT22;3547;50.774;12.918;2023-03-14T10:21:28;11.10;99.90
7014;DHT22;3547;50.774;12.918;2023-03-14T10:23:55;11.10;89.30
7014;DHT22;3547;50.774;12.918;2023-03-14T10:26:34;11.20;95.80
7014;DHT22;3547;50.774;12.918;2023-03-14T10:29:12;11.30;99.90
7014;DHT22;3547;50.774;12.918;2023-03-14T10:31:55;11.30;93.40
7014;DHT22;3547;50.774;12.918;2023-03-14T10:34:36;11.60;83.60
7014;DHT22;3547;50.774;12.918;2023-03-14T10:39:46;12.20;97.40
7014;DHT22;3547;50.774;12.918;2023-03-14T10:42:26;12.70;99.90
7014;DHT22;3547;50.774;12.918;2023-03-14T10:45:02;13.00;99.90
7014;DHT22;3547;50.774;12.918;2023-03-14T10:47:29;12.60;54.30
7014;DHT22;3547;50.774;12.918;2023-03-14T10:50:28;12.50;94.60
7014;DHT22;3547;50.774;12.918;2023-03-14T10:52:55;12.20;47.00
7014;DHT22;3547;50.774;12.918;2023-03-14T10:55:27;12.00;58.80
7014;DHT22;3547;50.774;12.918;2023-03-14T10:57:53;11.80;54.90
7014;DHT22;3547;50.774;12.918;2023-03-14T11:00:24;11.80;50.50
7014;DHT22;3547;50.774;12.918;2023-03-14T11:03:12;11.70;45.80
7014;DHT22;3547;50.774;12.918;2023-03-14T11:05:49;11.70;39.00
7014;DHT22;3547;50.774;12.918;2023-03-14T11:08:23;11.60;44.90
7014;DHT22;3547;50.774;12.918;2023-03-14T11:10:54;11.70;56.90
7014;DHT22;3547;50.774;12.918;2023-03-14T11:13:34;11.70;65.30
7014;DHT22;3547;50.774;12.918;2023-03-14T11:22:20;11.80;45.80
7014;DHT22;3547;50.774;12.918;2023-03-14T11:35:41;12.90;73.50
7014;DHT22;3547;50.774;12.918;2023-03-14T11:38:17;12.80;67.40
7014;DHT22;3547;50.774;12.918;2023-03-14T11:43:40;12.30;77.70
7014;DHT22;3547;50.774;12.918;2023-03-14T11:46:36;12.20;42.60
7014;DHT22;3547;50.774;12.918;2023-03-14T11:51:52;12.00;38.30
7014;DHT22;3547;50.774;12.918;2023-03-14T11:54:39;12.10;55.20
7014;DHT22;3547;50.774;12.918;2023-03-14T11:57:22;12.20;51.60
7014;DHT22;3547;50.774;12.918;2023-03-14T12:10:48;12.10;75.20
7014;DHT22;3547;50.774;12.918;2023-03-14T12:13:16;12.20;75.10
7014;DHT22;3547;50.774;12.918;2023-03-14T12:21:56;12.90;85.50
7014;DHT22;3547;50.774;12.918;2023-03-14T12:24:28;12.90;88.80
7014;DHT22;3547;50.774;12.918;2023-03-14T12:26:57;12.90;70.00
7014;DHT22;3547;50.774;12.918;2023-03-14T12:29:24;13.00;56.30
7014;DHT22;3547;50.774;12.918;2023-03-14T12:32:23;12.80;67.70
7014;DHT22;3547;50.774;12.918;2023-03-14T12:34:50;12.70;64.40
7014;DHT22;3547;50.774;12.918;2023-03-14T12:37:33;12.80;74.50
7014;DHT22;3547;50.774;12.918;2023-03-14T12:42:45;13.40;91.80
7014;DHT22;3547;50.774;12.918;2023-03-14T12:45:33;13.30;89.50
7014;DHT22;3547;50.774;12.918;2023-03-14T12:48:23;13.10;55.30
7014;DHT22;3547;50.774;12.918;2023-03-14T12:51:05;12.90;52.10
7014;DHT22;3547;50.774;12.918;2023-03-14T12:54:10;12.90;34.90
7014;DHT22;3547;50.774;12.918;2023-03-14T12:59:27;12.50;42.30
7014;DHT22;3547;50.774;12.918;2023-03-14T13:02:11;12.60;48.00
7014;DHT22;3547;50.774;12.918;2023-03-14T13:05:01;12.40;35.40
7014;DHT22;3547;50.774;12.918;2023-03-14T13:08:19;12.10;37.80
7014;DHT22;3547;50.774;12.918;2023-03-14T13:10:23;12.00;31.50
7014;DHT22;3547;50.774;12.918;2023-03-14T13:13:03;12.30;41.90
7014;DHT22;3547;50.774;12.918;2023-03-14T13:15:40;12.60;41.50
7014;DHT22;3547;50.774;12.918;2023-03-14T13:18:16;12.50;27.80
7014;DHT22;3547;50.774;12.918;2023-03-14T13:20:50;12.50;43.80
7014;DHT22;3547;50.774;12.918;2023-03-14T13:25:56;12.40;42.50
7014;DHT22;3547;50.774;12.918;2023-03-14T13:28:23;12.60;45.70
7014;DHT22;3547;50.774;12.918;2023-03-14T13:30:56;12.70;39.10
7014;DHT22;3547;50.774;12.918;2023-03-14T13:33:23;12.80;45.00
7014;DHT22;3547;50.774;12.918;2023-03-14T13:38:23;13.00;41.70
7014;DHT22;3547;50.774;12.918;2023-03-14T13:40:58;13.20;56.50
7014;DHT22;3547;50.774;12.918;2023-03-14T13:43:32;13.10;42.20
7014;DHT22;3547;50.774;12.918;2023-03-14T13:46:15;12.90;43.70
7014;DHT22;3547;50.774;12.918;2023-03-14T13:49:10;12.90;29.20
7014;DHT22;3547;50.774;12.918;2023-03-14T13:51:39;12.90;31.90
7014;DHT22;3547;50.774;12.918;2023-03-14T13:54:31;13.00;41.70
7014;DHT22;3547;50.774;12.918;2023-03-14T14:02:40;13.00;23.10
7014;DHT22;3547;50.774;12.918;2023-03-14T14:05:08;12.80;31.90
7014;DHT22;3547;50.774;12.918;2023-03-14T14:07:39;12.90;26.00
7014;DHT22;3547;50.774;12.918;2023-03-14T14:14:59;12.90;41.30
7014;DHT22;3547;50.774;12.918;2023-03-14T14:17:51;12.80;26.90
7014;DHT22;3547;50.774;12.918;2023-03-14T14:20:26;12.60;11.90
7014;DHT22;3547;50.774;12.918;2023-03-14T14:23:04;12.70;28.00
7014;DHT22;3547;50.774;12.918;2023-03-14T14:25:32;12.80;20.00
7014;DHT22;3547;50.774;12.918;2023-03-14T14:27:58;12.80;28.10
7014;DHT22;3547;50.774;12.918;2023-03-14T14:30:32;12.50;11.30
7014;DHT22;3547;50.774;12.918;2023-03-14T14:33:19;12.40;20.30
7014;DHT22;3547;50.774;12.918;2023-03-14T14:35:54;12.60;24.30
7014;DHT22;3547;50.774;12.918;2023-03-14T14:38:21;12.40;26.10
7014;DHT22;3547;50.774;12.918;2023-03-14T14:40:50;12.40;27.30
7014;DHT22;3547;50.774;12.918;2023-03-14T14:43:21;12.30;18.40
7014;DHT22;3547;50.774;12.918;2023-03-14T14:45:52;12.30;26.40
7014;DHT22;3547;50.774;12.918;2023-03-14T14:48:22;12.20;20.50
7014;DHT22;3547;50.774;12.918;2023-03-14T14:51:02;12.20;25.50
7014;DHT22;3547;50.774;12.918;2023-03-14T14:53:36;12.10;22.70
7014;DHT22;3547;50.774;12.918;2023-03-14T14:59:41;12.10;27.60
7014;DHT22;3547;50.774;12.918;2023-03-14T15:02:48;12.10;13.80
7014;DHT22;3547;50.774;12.918;2023-03-14T15:05:19;11.80;20.30
7014;DHT22;3547;50.774;12.918;2023-03-14T15:07:45;11.70;9.90
7014;DHT22;3547;50.774;12.918;2023-03-14T15:10:15;11.60;16.70
7014;DHT22;3547;50.774;12.918;2023-03-14T15:12:43;11.60;26.40
7014;DHT22;3547;50.774;12.918;2023-03-14T15:15:19;11.50;29.20
7014;DHT22;3547;50.774;12.918;2023-03-14T15:17:45;11.20;34.50
7014;DHT22;3547;50.774;12.918;2023-03-14T15:20:16;11.00;29.60
7014;DHT22;3547;50.774;12.918;2023-03-14T15:22:44;10.80;58.50
7014;DHT22;3547;50.774;12.918;2023-03-14T15:25:10;10.60;47.20
7014;DHT22;3547;50.774;12.918;2023-03-14T15:27:37;10.50;57.20
7014;DHT22;3547;50.774;12.918;2023-03-14T15:30:13;10.60;84.30
7014;DHT22;3547;50.774;12.918;2023-03-14T15:32:39;10.50;92.70
7014;DHT22;3547;50.774;12.918;2023-03-14T15:35:06;10.60;93.20
7014;DHT22;3547;50.774;12.918;2023-03-14T15:37:33;10.60;94.50
7014;DHT22;3547;50.774;12.918;2023-03-14T15:39:59;10.50;93.90
7014;DHT22;3547;50.774;12.918;2023-03-14T15:42:25;10.50;99.90
7014;DHT22;3547;50.774;12.918;2023-03-14T15:44:52;10.50;99.90
7014;DHT22;3547;50.774;12.918;2023-03-14T15:47:18;10.30;99.90
7014;DHT22;3547;50.774;12.918;2023-03-14T15:49:48;10.20;99.90
7014;DHT22;3547;50.774;12.918;2023-03-14T15:52:14;10.20;99.90
7014;DHT22;3547;50.774;12.918;2023-03-14T15:54:40;9.90;99.90
7014;DHT22;3547;50.774;12.918;2023-03-14T15:57:10;9.70;99.90
7014;DHT22;3547;50.774;12.918;2023-03-14T15:59:36;9.60;99.90
7014;DHT22;3547;50.774;12.918;2023-03-14T16:02:02;9.50;99.90
7014;DHT22;3547;50.774;12.918;2023-03-14T16:04:28;9.40;99.90
7014;DHT22;3547;50.774;12.918;2023-03-14T16:06:54;9.20;99.90
7014;DHT22;3547;50.774;12.918;2023-03-14T16:09:25;9.20;99.90
7014;DHT22;3547;50.774;12.918;2023-03-14T16:11:55;9.00;99.90
7014;DHT22;3547;50.774;12.918;2023-03-14T16:14:22;9.00;1.00
7014;DHT22;3547;50.774;12.918;2023-03-14T16:16:51;9.00;1.00
7014;DHT22;3547;50.774;12.918;2023-03-14T16:19:18;8.70;1.00
7014;DHT22;3547;50.774;12.918;2023-03-14T16:21:44;8.60;1.00
7014;DHT22;3547;50.774;12.918;2023-03-14T16:24:12;8.40;63.90
7014;DHT22;3547;50.774;12.918;2023-03-14T16:26:45;6.50;1.00
7014;DHT22;3547;50.774;12.918;2023-03-14T16:29:12;5.60;1.00
7014;DHT22;3547;50.774;12.918;2023-03-14T16:35:01;5.60;1.00
7014;DHT22;3547;50.774;12.918;2023-03-14T16:37:35;5.50;1.00
7014;DHT22;3547;50.774;12.918;2023-03-14T16:40:18;5.50;1.00
7014;DHT22;3547;50.774;12.918;2023-03-14T16:45:27;4.90;99.90
7014;DHT22;3547;50.774;12.918;2023-03-14T16:48:02;4.70;1.00
7014;DHT22;3547;50.774;12.918;2023-03-14T18:58:01;2.20;1.00
7014;DHT22;3547;50.774;12.918;2023-03-14T19:00:27;2.30;1.00
7014;DHT22;3547;50.774;12.918;2023-03-14T19:05:36;2.30;96.80
7014;DHT22;3547;50.774;12.918;2023-03-14T19:10:43;2.20;12.40
7014;DHT22;3547;50.774;12.918;2023-03-14T19:13:09;2.10;88.40
7014;DHT22;3547;50.774;12.918;2023-03-14T19:15:36;2.00;11.40
7014;DHT22;3547;50.774;12.918;2023-03-14T19:18:04;2.00;16.30
7014;DHT22;3547;50.774;12.918;2023-03-14T19:20:41;1.90;1.00
7014;DHT22;3547;50.774;12.918;2023-03-14T19:28:28;1.90;16.40
7014;DHT22;3547;50.774;12.918;2023-03-14T19:30:58;2.00;88.30
7014;DHT22;3547;50.774;12.918;2023-03-14T19:33:24;2.00;12.70
7014;DHT22;3547;50.774;12.918;2023-03-14T19:35:53;1.90;1.00
7014;DHT22;3547;50.774;12.918;2023-03-14T19:38:32;1.90;1.00
7014;DHT22;3547;50.774;12.918;2023-03-14T19:41:19;1.90;1.00
7014;DHT22;3547;50.774;12.918;2023-03-14T19:43:45;2.00;29.50
7014;DHT22;3547;50.774;12.918;2023-03-14T19:46:12;2.00;17.00
7014;DHT22;3547;50.774;12.918;2023-03-14T19:48:38;2.00;43.10
7014;DHT22;3547;50.774;12.918;2023-03-14T19:51:05;2.00;1.00
7014;DHT22;3547;50.774;12.918;2023-03-14T19:53:31;1.90;1.00
7014;DHT22;3547;50.774;12.918;2023-03-14T19:56:00;1.90;1.00
7014;DHT22;3547;50.774;12.918;2023-03-14T19:58:49;1.90;1.00
7014;DHT22;3547;50.774;12.918;2023-03-14T20:01:17;2.00;1.00
7014;DHT22;3547;50.774;12.918;2023-03-14T20:03:43;1.90;1.00
7014;DHT22;3547;50.774;12.918;2023-03-14T20:06:10;2.00;1.00
7014;DHT22;3547;50.774;12.918;2023-03-14T20:17:14;2.00;1.00
7014;DHT22;3547;50.774;12.918;2023-03-14T20:19:41;2.10;1.00
7014;DHT22;3547;50.774;12.918;2023-03-14T20:22:08;2.10;1.00
7014;DHT22;3547;50.774;12.918;2023-03-14T20:24:34;2.10;1.00
7014;DHT22;3547;50.774;12.918;2023-03-14T20:27:01;2.20;1.00
7014;DHT22;3547;50.774;12.918;2023-03-14T20:29:27;2.20;1.00
7014;DHT22;3547;50.774;12.918;2023-03-14T20:31:53;2.30;1.00
7014;DHT22;3547;50.774;12.918;2023-03-14T20:34:19;2.10;1.00
7014;DHT22;3547;50.774;12.918;2023-03-14T20:36:46;2.10;1.00
7014;DHT22;3547;50.774;12.918;2023-03-14T20:39:20;2.20;1.00
7014;DHT22;3547;50.774;12.918;2023-03-14T20:41:46;2.30;1.00
7014;DHT22;3547;50.774;12.918;2023-03-14T20:57:12;2.40;9.00
7014;DHT22;3547;50.774;12.918;2023-03-14T20:59:40;2.40;21.40
7014;DHT22;3547;50.774;12.918;2023-03-14T21:38:42;2.40;99.90
7014;DHT22;3547;50.774;12.918;2023-03-14T21:46:20;2.40;99.90
7014;DHT22;3547;50.774;12.918;2023-03-14T21:48:46;2.50;99.90
7014;DHT22;3547;50.774;12.918;2023-03-14T21:51:13;2.60;99.90
7014;DHT22;3547;50.774;12.918;2023-03-14T21:53:39;2.50;99.90
7014;DHT22;3547;50.774;12.918;2023-03-14T21:56:05;2.60;99.90
7014;DHT22;3547;50.774;12.918;2023-03-14T22:06:38;2.50;99.90
7014;DHT22;3547;50.774;12.918;2023-03-14T22:29:51;2.10;57.30
7014;DHT22;3547;50.774;12.918;2023-03-14T23:08:41;1.80;99.90
7014;DHT22;3547;50.774;12.918;2023-03-14T23:11:07;1.80;99.90
7014;DHT22;3547;50.774;12.918;2023-03-14T23:34:21;1.60;99.90
7014;DHT22;3547;50.774;12.918;2023-03-14T23:36:50;1.60;99.90
7014;DHT22;3547;50.774;12.918;2023-03-14T23:39:16;1.60;91.70